TimeEDT,TemperatureF,Dew PointF,Humidity,Sea Level PressureIn,VisibilityMPH,Wind Direction,Wind SpeedMPH,Gust SpeedMPH,PrecipitationIn,Events,Conditions,WindDirDegrees,DateUTC
12:14 AM,71.2,57.2,61,29.83,10.0,South,8.1,-,N/A,,Clear,170,2012-05-25 04:14:00
12:34 AM,71.4,56.7,60,29.83,10.0,South,6.9,-,N/A,,Clear,170,2012-05-25 04:34:00
12:54 AM,70.9,56.3,60,29.84,10.0,South,8.1,-,N/A,,Clear,170,2012-05-25 04:54:00
1:14 AM,70.9,55.8,59,29.84,10.0,South,8.1,-,N/A,,Clear,170,2012-05-25 05:14:00
1:34 AM,71.1,55.4,58,29.83,10.0,South,9.2,-,N/A,,Clear,170,2012-05-25 05:34:00
1:54 AM,70.7,55.2,58,29.83,10.0,South,8.1,-,N/A,,Clear,170,2012-05-25 05:54:00
2:14 AM,71.1,54.9,56,29.83,10.0,South,9.2,17.3,N/A,,Clear,170,2012-05-25 06:14:00
2:33 AM,71.1,54.9,56,29.83,10.0,South,9.2,-,N/A,,Clear,180,2012-05-25 06:33:00
2:54 AM,71.2,55.0,56,29.83,10.0,South,10.4,-,N/A,,Clear,180,2012-05-25 06:54:00
3:14 AM,71.2,55.4,57,29.82,10.0,South,9.2,-,N/A,,Clear,180,2012-05-25 07:14:00
3:34 AM,71.1,55.4,58,29.82,10.0,South,12.7,16.1,N/A,,Clear,170,2012-05-25 07:34:00
3:54 AM,71.2,55.4,57,29.82,10.0,South,8.1,16.1,N/A,,Clear,180,2012-05-25 07:54:00
4:14 AM,71.2,55.4,57,29.82,10.0,South,11.5,16.1,N/A,,Clear,180,2012-05-25 08:14:00
4:34 AM,71.2,55.0,56,29.83,10.0,South,10.4,-,N/A,,Clear,170,2012-05-25 08:34:00
4:54 AM,71.4,54.9,56,29.83,10.0,South,10.4,-,N/A,,Clear,180,2012-05-25 08:54:00
5:14 AM,71.6,54.7,55,29.83,10.0,South,11.5,-,N/A,,Clear,180,2012-05-25 09:14:00
5:34 AM,71.6,54.7,55,29.83,10.0,South,10.4,17.3,N/A,,Scattered Clouds,190,2012-05-25 09:34:00
5:54 AM,71.6,54.9,55,29.83,10.0,South,10.4,17.3,N/A,,Mostly Cloudy,180,2012-05-25 09:54:00
6:13 AM,71.2,54.9,56,29.83,10.0,South,9.2,16.1,N/A,,Scattered Clouds,190,2012-05-25 10:13:00
6:34 AM,71.4,55.2,57,29.84,10.0,SSW,9.2,16.1,N/A,,Clear,200,2012-05-25 10:34:00
6:54 AM,71.2,55.4,57,29.84,10.0,South,8.1,16.1,N/A,,Scattered Clouds,180,2012-05-25 10:54:00
7:14 AM,71.6,55.4,57,29.85,10.0,South,9.2,17.3,N/A,,Mostly Cloudy,180,2012-05-25 11:14:00
7:34 AM,71.6,55.6,57,29.85,10.0,SSW,8.1,-,N/A,,Mostly Cloudy,200,2012-05-25 11:34:00
7:54 AM,72.1,56.3,57,29.85,10.0,SSW,9.2,-,N/A,,Scattered Clouds,200,2012-05-25 11:54:00
8:14 AM,72.9,56.8,57,29.86,10.0,SSW,5.8,-,N/A,,Clear,200,2012-05-25 12:14:00
8:34 AM,74.3,57.0,55,29.88,10.0,SSW,10.4,-,N/A,,Clear,210,2012-05-25 12:34:00
8:54 AM,74.8,57.2,54,29.88,10.0,SSW,11.5,-,N/A,,Clear,210,2012-05-25 12:54:00
9:15 AM,77.2,58.1,52,29.89,10.0,SW,11.5,18.4,N/A,,Clear,230,2012-05-25 13:15:00
9:34 AM,78.3,58.5,50,29.90,10.0,SW,17.3,23.0,N/A,,Clear,230,2012-05-25 13:34:00
9:54 AM,78.8,58.8,50,29.91,10.0,WSW,15.0,21.9,N/A,,Clear,250,2012-05-25 13:54:00
10:14 AM,79.7,58.8,49,29.92,10.0,West,18.4,23.0,N/A,,Clear,260,2012-05-25 14:14:00
10:34 AM,79.7,59.2,49,29.92,10.0,West,13.8,-,N/A,,Clear,260,2012-05-25 14:34:00
10:54 AM,79.7,59.4,50,29.93,10.0,West,13.8,17.3,N/A,,Clear,280,2012-05-25 14:54:00
11:14 AM,79.2,59.9,52,29.94,10.0,West,15.0,21.9,N/A,,Clear,260,2012-05-25 15:14:00
11:34 AM,79.7,58.1,47,29.95,10.0,West,12.7,-,N/A,,Scattered Clouds,270,2012-05-25 15:34:00
11:54 AM,79.5,55.9,44,29.95,10.0,West,11.5,-,N/A,,Clear,280,2012-05-25 15:54:00
12:14 PM,79.5,53.1,40,29.96,10.0,West,16.1,23.0,N/A,,Clear,280,2012-05-25 16:14:00
12:34 PM,80.1,54.1,41,29.97,10.0,West,11.5,16.1,N/A,,Clear,280,2012-05-25 16:34:00
12:54 PM,80.1,50.2,35,29.98,10.0,West,13.8,19.6,N/A,,Clear,270,2012-05-25 16:54:00
1:14 PM,80.6,51.8,37,29.99,10.0,WNW,13.8,17.3,N/A,,Clear,290,2012-05-25 17:14:00
1:34 PM,80.6,50.5,35,29.99,10.0,WNW,11.5,-,N/A,,Clear,290,2012-05-25 17:34:00
1:54 PM,81.7,50.2,33,29.99,10.0,WNW,12.7,20.7,N/A,,Clear,290,2012-05-25 17:54:00
2:14 PM,82.0,47.1,29,29.99,10.0,West,11.5,19.6,N/A,,Clear,280,2012-05-25 18:14:00
2:34 PM,81.5,46.9,30,30.00,10.0,WNW,10.4,17.3,N/A,,Clear,290,2012-05-25 18:34:00
2:54 PM,82.4,46.6,28,30.00,10.0,West,13.8,-,N/A,,Clear,260,2012-05-25 18:54:00
3:14 PM,82.0,45.3,27,30.00,10.0,West,11.5,17.3,N/A,,Clear,280,2012-05-25 19:14:00
3:34 PM,81.9,45.1,27,30.00,10.0,West,11.5,18.4,N/A,,Clear,270,2012-05-25 19:34:00
3:54 PM,82.0,45.7,28,30.00,10.0,West,12.7,-,N/A,,Clear,280,2012-05-25 19:54:00
4:14 PM,82.4,46.8,29,30.01,10.0,West,11.5,-,N/A,,Clear,270,2012-05-25 20:14:00
4:34 PM,82.4,45.3,27,30.01,10.0,West,10.4,-,N/A,,Clear,280,2012-05-25 20:34:00
4:54 PM,82.4,44.1,26,30.01,10.0,West,11.5,16.1,N/A,,Clear,260,2012-05-25 20:54:00
5:14 PM,82.4,45.0,27,30.01,10.0,WNW,6.9,16.1,N/A,,Clear,290,2012-05-25 21:14:00
5:34 PM,82.2,45.3,27,30.02,10.0,West,10.4,16.1,N/A,,Clear,270,2012-05-25 21:34:00
5:54 PM,80.6,46.2,30,30.02,10.0,WNW,8.1,-,N/A,,Clear,290,2012-05-25 21:54:00
6:14 PM,79.5,46.2,31,30.03,10.0,NW,9.2,-,N/A,,Clear,320,2012-05-25 22:14:00
6:34 PM,78.4,46.8,33,30.04,10.0,NW,10.4,-,N/A,,Clear,320,2012-05-25 22:34:00
6:54 PM,78.4,47.1,33,30.04,10.0,NW,8.1,-,N/A,,Clear,310,2012-05-25 22:54:00
7:14 PM,77.4,46.0,33,30.04,10.0,NW,8.1,-,N/A,,Clear,310,2012-05-25 23:14:00
7:34 PM,76.3,45.3,33,30.05,10.0,NW,6.9,-,N/A,,Clear,320,2012-05-25 23:34:00
7:54 PM,75.4,46.2,35,30.05,10.0,NW,4.6,-,N/A,,Clear,320,2012-05-25 23:54:00
8:14 PM,73.6,46.9,39,30.05,10.0,NW,3.5,-,N/A,,Clear,310,2012-05-26 00:14:00
8:34 PM,71.8,48.2,43,30.05,10.0,Calm,Calm,-,N/A,,Clear,0,2012-05-26 00:34:00
8:54 PM,70.7,47.8,44,30.06,10.0,WNW,4.6,-,N/A,,Clear,300,2012-05-26 00:54:00
9:14 PM,69.1,47.7,46,30.05,10.0,Calm,Calm,-,N/A,,Clear,0,2012-05-26 01:14:00
9:34 PM,67.8,48.6,50,30.06,10.0,Calm,Calm,-,N/A,,Clear,0,2012-05-26 01:34:00
9:54 PM,65.8,48.9,54,30.06,10.0,Calm,Calm,-,N/A,,Clear,0,2012-05-26 01:54:00
10:14 PM,65.3,49.6,57,30.07,10.0,Calm,Calm,-,N/A,,Clear,0,2012-05-26 02:14:00
10:34 PM,65.3,49.1,56,30.08,7.0,Calm,Calm,-,N/A,,Clear,0,2012-05-26 02:34:00
10:55 PM,63.7,49.6,60,30.10,10.0,WNW,3.5,-,N/A,,Scattered Clouds,300,2012-05-26 02:55:00
11:14 PM,64.2,50.2,60,30.11,10.0,NW,4.6,-,N/A,,Scattered Clouds,310,2012-05-26 03:14:00
11:34 PM,67.3,48.6,51,30.12,10.0,NNW,6.9,-,N/A,,Mostly Cloudy,330,2012-05-26 03:34:00
11:55 PM,68.5,45.7,44,30.14,10.0,NW,6.9,-,N/A,,Overcast,320,2012-05-26 03:55:00